Data for 08/04/2013

Time Sea-Level Adjusted Pressure Absolute Pressure Temperature Relative Humidity Dew Point   
(mb) (inHg) (mb) (inHg) (C) (F) (%) (C) (F)
00:05 1021 30.15 851 25.13 16 60.8 67 10 49.9
00:10 1022 30.18 851 25.13 15.9 60.7 67 10 50
00:15 1022 30.18 851 25.13 15.9 60.6 68 10 50
00:20 1022 30.18 851 25.13 15.8 60.5 68 10 50.1
00:25 1022 30.18 851 25.13 15.8 60.4 68 10 50
00:30 1022 30.18 851 25.13 15.7 60.3 69 10 50.1
00:35 1022 30.18 851 25.13 15.7 60.2 69 10 50
00:40 1022 30.18 851 25.13 15.7 60.2 69 10.1 50.2
00:45 1022 30.18 851 25.13 15.6 60 70 10.1 50.3
00:50 1022 30.18 851 25.13 15.5 59.9 70 10.1 50.2
00:55 1022 30.18 851 25.13 15.5 59.8 70 10.1 50.2
01:00 1022 30.18 851 25.13 15.4 59.7 71 10.2 50.4
01:05 1022 30.18 851 25.13 15.3 59.5 71 10.2 50.4
01:10 1022 30.18 851 25.13 15.3 59.5 72 10.2 50.4
01:15 1022 30.18 851 25.13 15.3 59.5 72 10.3 50.5
01:20 1022 30.18 851 25.13 15.3 59.5 72 10.2 50.4
01:25 1022 30.18 851 25.13 15.3 59.5 72 10.3 50.5
01:30 1022 30.18 851 25.13 15.3 59.5 72 10.3 50.5
01:35 1022 30.18 851 25.13 15.3 59.5 72 10.3 50.6
01:40 1022 30.18 851 25.13 15.2 59.4 72 10.3 50.6
01:45 1022 30.18 851 25.13 15.3 59.5 72 10.3 50.6
01:50 1022 30.18 851 25.13 15.3 59.5 72 10.4 50.7
01:55 1022 30.18 851 25.13 15.3 59.5 73 10.4 50.8
02:00 1022 30.18 851 25.13 15.3 59.6 72 10.4 50.8
02:05 1022 30.18 851 25.13 15.3 59.6 73 10.5 51
02:10 1022 30.18 851 25.13 15.3 59.5 73 10.5 50.9
02:15 1022 30.18 851 25.13 15.3 59.5 73 10.5 50.9
02:20 1022 30.18 851 25.13 15.2 59.4 73 10.5 50.9
02:25 1022 30.18 851 25.13 15.2 59.4 74 10.6 51
02:30 1022 30.18 851 25.13 15.2 59.3 73 10.5 50.9
02:35 1022 30.18 851 25.13 15.2 59.4 74 10.6 51
02:40 1022 30.18 851 25.13 15.2 59.4 74 10.6 51.1
02:45 1022 30.18 851 25.13 15.2 59.3 74 10.6 51.1
02:50 1022 30.18 851 25.13 15.1 59.2 74 10.6 51.2
02:55 1022 30.18 851 25.13 15.1 59.3 74 10.7 51.2
03:00 1022 30.18 851 25.13 15.1 59.1 75 10.6 51.1
03:05 1022 30.18 851 25.13 15 59 75 10.6 51.2
03:10 1022 30.18 851 25.13 14.9 58.8 76 10.7 51.2
03:15 1022 30.18 851 25.13 14.9 58.8 75 10.6 51.1
03:20 1022 30.18 851 25.13 14.9 58.9 76 10.7 51.3
03:25 1022 30.18 851 25.13 14.9 58.8 76 10.6 51.2
03:30 1022 30.18 851 25.13 14.9 58.9 75 10.6 51
03:35 1022 30.18 851 25.13 15 59.1 75 10.6 51.2
03:40 1022 30.18 851 25.13 15 59 75 10.7 51.2
03:45 1022 30.18 851 25.13 14.9 58.8 75 10.5 50.9
03:50 1022 30.18 851 25.13 15 58.9 74 10.4 50.7
03:55 1022 30.18 851 25.13 15 59 74 10.5 50.8
04:00 1022 30.18 851 25.13 15 59 74 10.4 50.7
04:05 1022 30.18 851 25.13 14.9 58.8 75 10.5 50.9
04:10 1022 30.18 851 25.13 14.8 58.6 75 10.5 50.9
04:15 1022 30.18 851 25.13 14.8 58.6 75 10.4 50.6
04:20 1022 30.18 851 25.13 14.8 58.7 75 10.5 50.9
04:25 1022 30.18 851 25.13 14.8 58.6 75 10.4 50.8
04:30 1022 30.18 851 25.13 14.6 58.3 76 10.5 51
04:35 1022 30.18 851 25.13 14.4 58 77 10.5 50.9
04:40 1022 30.18 851 25.13 14.3 57.7 78 10.5 50.9
04:45 1022 30.18 851 25.13 14.2 57.6 78 10.4 50.7
04:50 1022 30.18 851 25.13 14.2 57.5 78 10.5 50.8
04:55 1022 30.18 851 25.13 14 57.3 79 10.4 50.8
05:00 1022 30.18 851 25.13 13.9 57 79 10.4 50.6
05:05 1022 30.18 851 25.13 13.8 56.8 79 10.3 50.6
05:10 1022 30.18 851 25.13 13.7 56.7 79 10.2 50.4
05:15 1022 30.18 851 25.13 13.6 56.4 80 10.2 50.4
05:20 1022 30.18 851 25.13 13.5 56.2 80 10.1 50.3
05:25 1022 30.18 851 25.13 13.3 56 81 10.1 50.2
05:30 1022 30.18 851 25.13 13.2 55.8 80 9.9 49.8
05:35 1022 30.18 851 25.13 13 55.3 81 9.7 49.5
05:40 1022 30.18 852 25.16 12.8 55.1 80 9.5 49.1
05:45 1022 30.18 852 25.16 12.8 55 79 9.2 48.5
05:50 1022 30.18 852 25.16 12.8 55 77 8.8 47.9
05:55 1022 30.18 852 25.16 12.5 54.5 77 8.7 47.6
06:00 1022 30.18 852 25.16 12.4 54.2 78 8.6 47.5
06:05 1022 30.18 852 25.16 12.5 54.4 76 8.4 47.2
06:10 1023 30.21 852 25.16 12.7 54.9 75 8.4 47.2
06:15 1023 30.21 852 25.16 12.9 55.2 74 8.4 47.2
06:20 1023 30.21 852 25.16 12.9 55.3 73 8.3 47
06:25 1023 30.21 852 25.16 13.1 55.5 72 8.2 46.7
06:30 1023 30.21 852 25.16 13.5 56.4 70 8.3 46.9
06:35 1023 30.21 852 25.16 13.8 56.9 70 8.4 47.1
06:40 1023 30.21 852 25.16 14.5 58 68 8.7 47.7
06:45 1023 30.21 852 25.16 14.7 58.4 67 8.6 47.5
06:50 1023 30.21 852 25.16 15 59 64 8.4 47.1
06:55 1023 30.21 852 25.16 15.1 59.1 64 8.4 47.2
07:00 1023 30.21 852 25.16 14.9 58.8 65 8.4 47.2
07:05 1023 30.21 852 25.16 14.8 58.7 65 8.4 47.2
07:10 1023 30.21 852 25.16 15.3 59.5 64 8.7 47.6
07:15 1023 30.21 852 25.16 15.3 59.6 65 8.8 47.8
07:20 1023 30.21 852 25.16 15.7 60.2 65 9.1 48.3
07:25 1023 30.21 852 25.16 15.8 60.4 64 8.9 48.1
07:30 1023 30.21 852 25.16 16.2 61.1 61 8.8 47.8
07:35 1023 30.21 852 25.16 16.7 62.1 60 9 48.2
07:40 1023 30.21 852 25.16 16.8 62.3 59 8.9 48
07:45 1023 30.21 852 25.16 17.4 63.3 58 9.2 48.5
07:50 1023 30.21 852 25.16 17.3 63.2 58 9 48.2
07:55 1023 30.21 852 25.16 17.7 63.9 57 9.2 48.5
08:00 1023 30.21 852 25.16 17.9 64.1 55 8.8 47.8
08:05 1023 30.21 852 25.16 18.3 64.9 55 9.1 48.3
08:10 1023 30.21 852 25.16 18.1 64.7 55 9.1 48.4
08:15 1023 30.21 852 25.16 18.5 65.3 53 8.9 48
08:20 1023 30.21 852 25.16 19.1 66.5 52 9.2 48.5
08:25 1022 30.18 852 25.16 19.6 67.2 51 9.1 48.5
08:30 1023 30.21 852 25.16 20 68 49 9.1 48.4
08:35 1022 30.18 852 25.16 19.6 67.2 52 9.6 49.3
08:40 1022 30.18 852 25.16 19.8 67.7 49 9 48.2
08:45 1022 30.18 852 25.16 20.4 68.7 49 9.6 49.3
08:50 1022 30.18 852 25.16 20.4 68.7 49 9.5 49.1
08:55 1022 30.18 851 25.13 19.7 67.4 51 9.5 49.1
09:00 1022 30.18 851 25.13 20 67.9 49 9.1 48.4
09:05 1022 30.18 851 25.13 20.4 68.6 48 9.2 48.6
09:10 1022 30.18 851 25.13 20.2 68.4 49 9.2 48.5
09:15 1022 30.18 851 25.13 20.9 69.6 47 9.2 48.5
09:20 1022 30.18 851 25.13 21.5 70.6 44 9 48.2
09:25 1022 30.18 851 25.13 21.6 70.8 44 9.1 48.4
09:30 1022 30.18 851 25.13 21.7 71 44 9.1 48.5
09:35 1022 30.18 851 25.13 21.6 70.8 46 9.7 49.5
09:40 1022 30.18 851 25.13 21.3 70.4 45 9.1 48.3
09:45 1022 30.18 851 25.13 21.9 71.3 45 9.6 49.3
09:50 1022 30.18 851 25.13 20.7 69.3 49 9.9 49.8
09:55 1022 30.18 851 25.13 20.2 68.4 50 9.5 49.1
10:00 1022 30.18 851 25.13 20.5 69 49 9.7 49.4
10:05 1022 30.18 851 25.13 21 69.9 47 9.6 49.2
10:10 1022 30.18 851 25.13 21.2 70.2 47 9.7 49.5
10:15 1022 30.18 851 25.13 22.1 71.8 44 9.4 49
10:20 1022 30.18 851 25.13 22.9 73.2 41 9.3 48.8
10:25 1022 30.18 851 25.13 22.7 72.9 42 9.4 49
10:30 1022 30.18 851 25.13 22.4 72.4 43 9.4 48.9
10:35 1022 30.18 851 25.13 22.6 72.6 43 9.7 49.5
10:40 1022 30.18 851 25.13 22.6 72.6 40 8.3 47
10:45 1022 30.18 851 25.13 23 73.4 38 8.3 46.9
10:50 1022 30.18 851 25.13 23.1 73.6 39 8.7 47.6
10:55 1022 30.18 851 25.13 23.6 74.4 36 7.6 45.8
11:00 1022 30.18 851 25.13 23.7 74.7 36 8.2 46.7
11:05 1022 30.18 851 25.13 23.8 74.9 33 7 44.6
11:10 1022 30.18 851 25.13 24.3 75.7 33 7.2 44.9
11:15 1022 30.18 851 25.13 24.3 75.8 32 6.6 43.9
11:20 1022 30.18 851 25.13 24.3 75.7 30 6 42.8
11:25 1021 30.15 851 25.13 24.7 76.4 28 5 41.1
11:30 1021 30.15 851 25.13 23.9 75 30 5.6 42.1
11:35 1021 30.15 851 25.13 23.9 74.9 30 5.3 41.6
11:40 1021 30.15 851 25.13 24.3 75.7 30 6 42.8
11:45 1021 30.15 850 25.1 24.8 76.6 29 6 42.8
11:50 1021 30.15 850 25.1 24.1 75.3 30 5.6 42.1
11:55 1021 30.15 850 25.1 24.6 76.3 28 5.1 41.1
12:00 1021 30.15 850 25.1 24.2 75.6 29 5.2 41.3
12:05 1021 30.15 850 25.1 24.2 75.6 28 4.9 40.8
12:10 1021 30.15 850 25.1 25.1 77.1 28 5.6 42.1
12:15 1021 30.15 850 25.1 24.8 76.7 27 4.9 40.8
12:20 1021 30.15 850 25.1 25.5 77.9 26 4.8 40.7
12:25 1021 30.15 850 25.1 25.6 78 26 5 41.1
12:30 1021 30.15 850 25.1 24.7 76.5 27 4.9 40.9
12:35 1021 30.15 850 25.1 24.8 76.6 27 4.8 40.6
12:40 1021 30.15 850 25.1 25.3 77.5 25 4.2 39.5
12:45 1021 30.15 850 25.1 25.6 78.1 24 4 39.2
12:50 1021 30.15 850 25.1 25.3 77.5 25 3.9 39.1
12:55 1021 30.15 850 25.1 25.5 77.9 25 4 39.3
13:00 1021 30.15 850 25.1 25.5 77.8 24 3.9 39.1
13:05 1021 30.15 850 25.1 26 78.7 23 3.6 38.4
13:10 1021 30.15 850 25.1 25.7 78.3 23 3.5 38.3
13:15 1021 30.15 850 25.1 25.9 78.6 23 3.5 38.3
13:20 1021 30.15 850 25.1 25.9 78.6 23 3.6 38.5
13:25 1021 30.15 850 25.1 26 78.9 22 3 37.3
13:30 1021 30.15 850 25.1 25.9 78.7 22 3.1 37.6
13:35 1021 30.15 850 25.1 25.6 78 22 2.6 36.6
13:40 1021 30.15 850 25.1 25 77 23 2.9 37.2
13:45 1021 30.15 850 25.1 25.2 77.4 23 2.7 36.9
13:50 1021 30.15 850 25.1 25.2 77.4 24 3.4 38.1
13:55 1021 30.15 850 25.1 25.6 78.2 23 3.3 38
14:00 1021 30.15 850 25.1 26.3 79.4 22 3.5 38.3
14:05 1021 30.15 850 25.1 26.6 80 22 3.4 38.1
14:10 1021 30.15 850 25.1 26.7 80.1 22 3.6 38.5
14:15 1021 30.15 850 25.1 26.9 80.5 21 3.3 37.9
14:20 1020 30.12 850 25.1 26.2 79.2 22 3.4 38.1
14:25 1020 30.12 850 25.1 26.7 80 22 3.2 37.8
14:30 1020 30.12 850 25.1 27.3 81.2 21 3.7 38.6
14:35 1020 30.12 850 25.1 27.3 81.1 21 3 37.4
14:40 1020 30.12 850 25.1 27.2 80.9 21 2.9 37.3
14:45 1020 30.12 850 25.1 27.5 81.4 21 3.2 37.7
14:50 1020 30.12 849 25.07 27.5 81.5 20 3.1 37.5
14:55 1020 30.12 849 25.07 27.7 81.9 19 2.6 36.7
15:00 1020 30.12 849 25.07 27.6 81.7 20 2.9 37.1
15:05 1020 30.12 849 25.07 27.7 81.9 20 3 37.4
15:10 1020 30.12 849 25.07 27.2 80.9 20 2.5 36.5
15:15 1020 30.12 849 25.07 27.8 82 18 2 35.5
15:20 1020 30.12 849 25.07 27.1 80.8 19 2.1 35.8
15:25 1020 30.12 849 25.07 27.6 81.7 19 2.1 35.8
15:30 1020 30.12 849 25.07 27.3 81.1 19 2.2 36
15:35 1020 30.12 849 25.07 27.6 81.7 19 2.3 36.1
15:40 1020 30.12 849 25.07 27.8 82 19 2.1 35.8
15:45 1020 30.12 849 25.07 27.8 82.1 18 2 35.6
15:50 1020 30.12 849 25.07 28.1 82.5 18 2.2 36
15:55 1019 30.09 849 25.07 27.7 81.9 19 2.2 35.9
16:00 1019 30.09 849 25.07 27.7 81.9 19 2 35.5
16:05 1019 30.09 849 25.07 27.7 81.9 18 1.5 34.7
16:10 1019 30.09 849 25.07 28.1 82.5 18 1.6 34.9
16:15 1019 30.09 849 25.07 28.4 83.1 17 1.2 34.2
16:20 1019 30.09 848 25.04 28.6 83.4 17 1.2 34.1
16:25 1019 30.09 848 25.04 28.8 83.8 15 0.3 32.5
16:30 1019 30.09 848 25.04 28.5 83.2 17 1 33.9
16:35 1019 30.09 848 25.04 28.2 82.8 17 1.1 34
16:40 1019 30.09 848 25.04 28.2 82.8 15 -0.3 31.4
16:45 1019 30.09 848 25.04 28.4 83.1 17 0.9 33.7
16:50 1019 30.09 848 25.04 28.4 83.1 17 1.2 34.1
16:55 1019 30.09 848 25.04 28.3 82.9 16 0.4 32.7
17:00 1019 30.09 848 25.04 27.7 81.9 17 0.9 33.7
17:05 1019 30.09 848 25.04 27.6 81.7 17 0.3 32.5
17:10 1019 30.09 848 25.04 27.7 81.8 16 -0.2 31.7
17:15 1019 30.09 848 25.04 27.7 81.8 15 -0.8 30.6
17:20 1019 30.09 848 25.04 28.3 82.9 15 -0.6 31
17:25 1019 30.09 848 25.04 28.6 83.4 15 0.2 32.3
17:30 1019 30.09 848 25.04 28.2 82.7 16 -0.1 31.8
17:35 1019 30.09 848 25.04 27.8 82 15 -1 30.3
17:40 1019 30.09 848 25.04 27.3 81.1 15 -0.9 30.4
17:45 1019 30.09 848 25.04 27.1 80.8 17 0.1 32.2
17:50 1019 30.09 848 25.04 27 80.6 17 0.1 32.2
17:55 1019 30.09 848 25.04 27.4 81.3 15 -0.9 30.4
18:00 1019 30.09 848 25.04 27.2 80.9 15 -1 30.1
18:05 1019 30.09 848 25.04 26.9 80.4 17 -0.3 31.4
18:10 1019 30.09 848 25.04 26.8 80.2 16 -0.5 31.1
18:15 1019 30.09 848 25.04 26.6 79.9 16 -1.2 29.8
18:20 1019 30.09 848 25.04 26.5 79.7 17 -0.2 31.6
18:25 1019 30.09 848 25.04 26.5 79.6 18 0.4 32.8
18:30 1019 30.09 848 25.04 26.5 79.8 19 1.1 34
18:35 1019 30.09 848 25.04 26.4 79.6 17 -0.1 31.9
18:40 1019 30.09 848 25.04 26.2 79.2 18 -0.1 31.9
18:45 1019 30.09 848 25.04 26.2 79.2 18 0.1 32.1
18:50 1019 30.09 848 25.04 26.2 79.2 18 0.5 32.8
18:55 1019 30.09 848 25.04 26.1 79 19 0.7 33.3
19:00 1019 30.09 848 25.04 26.1 78.9 19 0.9 33.6
19:05 1019 30.09 848 25.04 25.9 78.7 19 0.8 33.5
19:10 1019 30.09 848 25.04 25.8 78.4 19 0.9 33.6
19:15 1019 30.09 848 25.04 25.7 78.2 21 1.8 35.3
19:20 1019 30.09 848 25.04 25.6 78 21 2 35.7
19:25 1019 30.09 848 25.04 25.4 77.7 20 1.2 34.2
19:30 1019 30.09 848 25.04 25.4 77.7 20 1 33.8
19:35 1019 30.09 848 25.04 25.3 77.5 24 3.2 37.8
19:40 1019 30.09 849 25.07 24.8 76.7 25 3.7 38.7
19:45 1019 30.09 849 25.07 24.2 75.5 29 5.3 41.6
19:50 1020 30.12 849 25.07 23.4 74.1 31 5.6 42
19:55 1020 30.12 849 25.07 22.8 73.1 34 6.3 43.4
20:00 1020 30.12 849 25.07 22.1 71.8 38 7.5 45.4
20:05 1020 30.12 849 25.07 21.4 70.5 35 5.3 41.5
20:10 1020 30.12 849 25.07 21.2 70.1 34 5.1 41.1
20:15 1020 30.12 849 25.07 20.6 69 39 6.4 43.6
20:20 1020 30.12 849 25.07 20.1 68.2 35 4.3 39.7
20:25 1020 30.12 849 25.07 21.1 70 31 3.6 38.4
20:30 1020 30.12 849 25.07 22 71.5 31 4.2 39.5
20:35 1020 30.12 849 25.07 22 71.6 31 4.3 39.7
20:40 1020 30.12 849 25.07 22 71.7 31 4.4 39.9
20:45 1020 30.12 849 25.07 22 71.5 32 4.6 40.3
20:50 1020 30.12 849 25.07 21.8 71.3 32 4.8 40.6
20:55 1020 30.12 850 25.1 21.7 71.1 33 4.9 40.8
21:00 1020 30.12 850 25.1 21.6 70.9 33 4.9 40.8
21:05 1020 30.12 850 25.1 21.5 70.7 33 4.8 40.6
21:10 1020 30.12 850 25.1 21.4 70.6 33 4.9 40.8
21:15 1020 30.12 850 25.1 21.4 70.5 34 5 41
21:20 1020 30.12 850 25.1 21.3 70.3 35 5.4 41.6
21:25 1020 30.12 850 25.1 21.1 70 36 5.5 41.8
21:30 1020 30.12 850 25.1 21.1 70 35 5.4 41.7
21:35 1020 30.12 850 25.1 21.2 70.1 36 5.7 42.3
21:40 1020 30.12 850 25.1 21.1 69.9 37 5.9 42.7
21:45 1020 30.12 850 25.1 20.9 69.6 38 6.2 43.1
21:50 1020 30.12 850 25.1 20.8 69.5 39 6.3 43.4
21:55 1020 30.12 850 25.1 20.7 69.2 40 6.6 43.9
22:00 1020 30.12 850 25.1 20.6 69.1 40 6.6 43.9
22:05 1021 30.15 850 25.1 20.7 69.2 40 6.7 44.1
22:10 1021 30.15 850 25.1 20.7 69.2 40 6.9 44.4
22:15 1021 30.15 850 25.1 20.5 68.9 41 7.1 44.8
22:20 1021 30.15 850 25.1 20.3 68.5 42 7.2 45
22:25 1021 30.15 850 25.1 20.2 68.4 42 7.1 44.8
22:30 1021 30.15 850 25.1 20.1 68.3 43 7.4 45.2
22:35 1021 30.15 850 25.1 20 68 43 7.3 45.1
22:40 1021 30.15 850 25.1 20 67.9 44 7.4 45.3
22:45 1021 30.15 850 25.1 20 68 44 7.5 45.4
22:50 1021 30.15 850 25.1 19.9 67.8 44 7.6 45.6
22:55 1021 30.15 850 25.1 19.8 67.6 45 7.7 45.8
23:00 1021 30.15 850 25.1 19.6 67.3 45 7.7 45.8
23:05 1021 30.15 850 25.1 19.6 67.2 46 7.7 45.9
23:10 1021 30.15 850 25.1 19.5 67.1 46 7.8 46
23:15 1021 30.15 850 25.1 19.5 67.1 46 7.8 46
23:20 1021 30.15 850 25.1 19.4 67 46 7.8 46
23:25 1021 30.15 850 25.1 19.5 67 47 7.9 46.2
23:30 1021 30.15 850 25.1 19.4 66.9 47 7.9 46.2
23:35 1021 30.15 850 25.1 19.3 66.8 47 8 46.3
23:40 1021 30.15 850 25.1 19.3 66.7 48 8 46.5
23:45 1021 30.15 850 25.1 19.2 66.6 48 8.1 46.6
23:50 1021 30.15 850 25.1 19.2 66.5 49 8.2 46.7
23:55 1021 30.15 850 25.1 19 66.2 49 8.2 46.8
24:00 1021 30.15 850 25.1 18.9 66.1 50 8.3 46.9